Time;durP1;ratioP1;P1;durP2;ratioP2;P2;SDS_P1;SDS_P2;PMS_P1;PMS_P2;Temp;Humidity;BMP_temperature;BMP_pressure;BME280_temperature;BME280_humidity;BME280_pressure;Samples;Min_cycle;Max_cycle;Signal;HPM_P1;HPM_P2
2022/06/26 00:00:54;;;;;;;4.03;3.25;;;18.30;96.50;;;;;;5025133;28;20037;-74
2022/06/26 00:03:22;;;;;;;3.63;2.17;;;18.40;95.80;;;;;;5038733;28;20052;-75
2022/06/26 00:05:49;;;;;;;3.40;2.72;;;18.70;95.60;;;;;;5032436;28;20252;-75
2022/06/26 00:08:16;;;;;;;3.90;2.70;;;19.00;95.60;;;;;;5039235;28;20044;-75
2022/06/26 00:10:45;;;;;;;2.92;2.30;;;19.60;95.00;;;;;;5033526;28;20041;-77
2022/06/26 00:13:12;;;;;;;6.70;2.95;;;20.50;93.40;;;;;;5032940;28;20029;-75
2022/06/26 00:15:41;;;;;;;3.70;2.58;;;20.10;92.90;;;;;;5043666;28;20053;-75
2022/06/26 00:18:08;;;;;;;4.18;2.90;;;19.70;93.90;;;;;;5039746;28;20061;-75
2022/06/26 00:20:36;;;;;;;3.42;3.10;;;19.00;94.20;;;;;;5052430;28;20112;-75
2022/06/26 00:23:03;;;;;;;5.90;3.25;;;18.60;94.50;;;;;;5035710;28;20032;-76
2022/06/26 00:25:31;;;;;;;3.78;3.15;;;18.20;95.00;;;;;;5048311;28;20040;-76
2022/06/26 00:27:58;;;;;;;4.25;2.80;;;18.30;95.30;;;;;;5036142;28;20052;-75
2022/06/26 00:30:26;;;;;;;3.80;2.90;;;18.10;95.80;;;;;;5033517;28;20239;-74
2022/06/26 00:32:53;;;;;;;2.75;2.25;;;17.80;96.10;;;;;;5044945;28;20117;-75
2022/06/26 00:35:21;;;;;;;4.03;2.92;;;17.60;96.60;;;;;;5033648;28;20029;-75
2022/06/26 00:37:48;;;;;;;4.35;3.05;;;17.50;97.00;;;;;;5050952;28;20063;-75
2022/06/26 00:40:16;;;;;;;4.13;3.10;;;17.50;97.30;;;;;;5039703;28;20046;-77
2022/06/26 00:42:43;;;;;;;4.80;3.15;;;17.90;96.60;;;;;;5043935;28;20079;-77
2022/06/26 00:45:11;;;;;;;5.18;3.20;;;18.10;96.30;;;;;;5042335;28;20085;-78
2022/06/26 00:47:38;;;;;;;5.10;3.22;;;18.20;96.30;;;;;;5041004;28;20044;-77
2022/06/26 00:50:08;;;;;;;7.22;3.88;;;18.20;96.00;;;;;;5046202;28;20036;-79
2022/06/26 00:52:36;;;;;;;4.43;3.20;;;18.20;95.90;;;;;;5038868;28;20041;-79
2022/06/26 00:55:04;;;;;;;5.82;3.00;;;18.40;96.20;;;;;;5048629;28;20351;-77
2022/06/26 00:57:33;;;;;;;5.95;3.67;;;18.50;95.60;;;;;;5043437;28;20047;-78
2022/06/26 01:00:00;;;;;;;3.97;3.42;;;18.50;95.40;;;;;;5038635;28;20021;-72
2022/06/26 01:02:28;;;;;;;5.15;3.45;;;18.60;96.30;;;;;;5039220;28;20044;-72
2022/06/26 01:04:55;;;;;;;6.57;4.55;;;18.70;95.70;;;;;;5031763;28;20123;-74
2022/06/26 01:07:22;;;;;;;4.57;3.65;;;18.60;95.30;;;;;;5032993;28;20037;-75
2022/06/26 01:09:50;;;;;;;7.43;4.45;;;18.70;95.30;;;;;;5042496;28;20074;-74
2022/06/26 01:12:17;;;;;;;4.70;3.65;;;18.70;96.00;;;;;;5031314;28;20083;-74
2022/06/26 01:14:46;;;;;;;7.30;4.32;;;18.60;95.70;;;;;;5032934;28;20029;-73
2022/06/26 01:17:13;;;;;;;5.57;4.53;;;18.80;96.10;;;;;;5038942;28;20032;-74
2022/06/26 01:19:41;;;;;;;10.63;4.60;;;18.90;95.70;;;;;;5030144;28;20037;-75
2022/06/26 01:22:08;;;;;;;7.15;4.43;;;19.00;95.10;;;;;;5034638;28;20127;-74
2022/06/26 01:24:36;;;;;;;5.95;4.85;;;19.30;95.20;;;;;;5029597;28;20026;-74
2022/06/26 01:27:04;;;;;;;6.88;4.60;;;19.70;95.00;;;;;;5029931;28;20075;-74
2022/06/26 01:29:31;;;;;;;7.18;3.95;;;19.50;95.30;;;;;;5033017;28;20126;-74
2022/06/26 01:31:59;;;;;;;8.35;4.05;;;19.70;95.00;;;;;;5040529;28;20025;-74
2022/06/26 01:34:26;;;;;;;6.55;3.97;;;19.70;94.90;;;;;;5030108;28;20041;-74
2022/06/26 01:36:54;;;;;;;7.28;3.35;;;19.50;94.80;;;;;;5032344;28;20057;-75
2022/06/26 01:39:21;;;;;;;9.68;4.53;;;19.60;94.70;;;;;;5031036;28;20080;-73
2022/06/26 01:41:49;;;;;;;6.07;4.35;;;19.50;94.70;;;;;;5038141;28;20450;-73
2022/06/26 01:44:17;;;;;;;5.47;3.47;;;19.30;94.30;;;;;;5033202;28;20753;-75
2022/06/26 01:46:44;;;;;;;8.90;4.32;;;19.30;95.00;;;;;;5031745;28;20048;-73
2022/06/26 01:49:12;;;;;;;6.25;4.25;;;19.40;94.90;;;;;;5031461;28;20026;-74
2022/06/26 01:51:39;;;;;;;9.70;4.38;;;19.40;94.90;;;;;;5032050;28;20079;-76
2022/06/26 01:54:06;;;;;;;8.18;3.80;;;19.30;94.70;;;;;;5035278;28;20061;-74
2022/06/26 01:56:34;;;;;;;6.70;3.38;;;19.40;95.40;;;;;;5034783;28;20405;-74
2022/06/26 01:59:01;;;;;;;7.20;3.58;;;19.30;94.90;;;;;;5045215;28;20059;-74
2022/06/26 02:01:28;;;;;;;6.63;4.18;;;19.30;95.20;;;;;;5049191;28;20036;-74
2022/06/26 02:03:56;;;;;;;6.60;3.88;;;19.30;95.20;;;;;;5044121;28;20154;-73
2022/06/26 02:06:34;;;;;;;4.18;3.75;;;19.30;95.00;;;;;;5030084;28;20120;-74
2022/06/26 02:09:01;;;;;;;4.68;3.97;;;19.10;95.10;;;;;;5012945;28;20793;-73
2022/06/26 02:14:14;;;;;;;7.88;3.75;;;19.20;95.40;;;;;;5042382;28;20048;-74
2022/06/26 02:16:42;;;;;;;5.05;3.92;;;19.40;95.90;;;;;;5037903;28;20372;-74
2022/06/26 02:19:10;;;;;;;5.72;3.85;;;19.60;95.90;;;;;;5047323;28;20043;-73
2022/06/26 02:21:39;;;;;;;6.05;3.70;;;19.50;95.40;;;;;;5045777;28;20376;-74
2022/06/26 02:24:07;;;;;;;3.83;3.08;;;19.60;95.20;;;;;;5038086;28;20083;-75
2022/06/26 02:26:34;;;;;;;5.30;3.50;;;19.50;95.60;;;;;;5032586;28;20112;-74
2022/06/26 02:29:02;;;;;;;5.70;3.75;;;19.50;95.70;;;;;;5033741;28;20034;-72
2022/06/26 02:31:29;;;;;;;5.20;3.42;;;19.70;95.80;;;;;;5045270;28;20044;-73
2022/06/26 02:33:56;;;;;;;4.68;3.78;;;20.00;95.30;;;;;;5030145;28;20017;-74
2022/06/26 02:36:24;;;;;;;5.05;3.78;;;20.20;94.90;;;;;;5040039;28;20028;-74
2022/06/26 02:38:51;;;;;;;5.13;3.38;;;19.90;95.00;;;;;;5040531;28;20488;-74
2022/06/26 02:41:19;;;;;;;5.10;3.58;;;19.80;95.70;;;;;;5032432;28;20417;-72
2022/06/26 02:43:46;;;;;;;4.57;3.33;;;19.80;95.60;;;;;;5044483;28;20036;-73
2022/06/26 02:46:14;;;;;;;4.60;3.15;;;20.00;95.30;;;;;;5037806;28;23085;-73
2022/06/26 02:48:41;;;;;;;6.75;3.47;;;20.20;95.30;;;;;;5037524;28;20143;-73
2022/06/26 02:51:08;;;;;;;7.32;3.80;;;20.40;95.40;;;;;;5057805;28;20093;-74
2022/06/26 02:53:35;;;;;;;4.65;3.13;;;21.00;95.00;;;;;;5040200;28;20139;-73
2022/06/26 02:56:03;;;;;;;5.38;4.03;;;21.30;94.80;;;;;;5040471;28;20395;-73
2022/06/26 02:58:30;;;;;;;4.05;2.95;;;21.60;94.10;;;;;;5053210;28;20030;-73
2022/06/26 03:00:57;;;;;;;3.08;2.50;;;21.80;93.30;;;;;;5053870;28;20108;-73
2022/06/26 03:03:25;;;;;;;5.30;3.25;;;21.80;93.40;;;;;;5031136;28;20087;-73
2022/06/26 03:05:52;;;;;;;3.97;2.67;;;21.90;93.30;;;;;;5044037;28;20032;-73
2022/06/26 03:08:20;;;;;;;4.28;2.63;;;21.90;93.70;;;;;;5029594;28;20029;-74
2022/06/26 03:10:49;;;;;;;2.78;2.45;;;21.90;93.30;;;;;;5027437;28;20079;-73
2022/06/26 03:13:16;;;;;;;4.25;1.85;;;21.80;92.30;;;;;;5040821;28;20104;-74
2022/06/26 03:15:44;;;;;;;2.25;1.83;;;21.70;92.40;;;;;;5028338;28;20021;-72
2022/06/26 03:18:11;;;;;;;2.25;1.10;;;21.70;92.30;;;;;;5044278;28;20049;-73
2022/06/26 03:20:40;;;;;;;1.35;0.90;;;21.70;91.00;;;;;;5034872;28;20124;-75
2022/06/26 03:23:07;;;;;;;2.83;1.13;;;21.70;91.70;;;;;;5043592;28;20495;-74
2022/06/26 03:25:34;;;;;;;3.10;0.98;;;21.90;91.20;;;;;;5031383;28;20021;-74
2022/06/26 03:28:02;;;;;;;2.05;0.90;;;21.90;90.90;;;;;;5034474;28;20037;-74
2022/06/26 03:30:29;;;;;;;4.45;1.10;;;21.70;91.40;;;;;;5053157;28;20025;-74
2022/06/26 03:32:57;;;;;;;2.38;1.13;;;21.60;91.50;;;;;;5058293;28;20032;-74
2022/06/26 03:35:24;;;;;;;1.88;0.90;;;21.50;92.00;;;;;;5048658;28;20036;-74
2022/06/26 03:37:51;;;;;;;1.77;0.70;;;21.40;91.70;;;;;;5046167;28;20068;-74
2022/06/26 03:40:20;;;;;;;0.80;0.65;;;21.20;90.70;;;;;;5061428;28;20426;-73
2022/06/26 03:42:48;;;;;;;1.77;0.98;;;21.10;91.50;;;;;;5054591;28;20075;-73
2022/06/26 03:45:15;;;;;;;1.92;0.75;;;21.10;91.70;;;;;;5057133;28;20037;-73
2022/06/26 03:47:42;;;;;;;2.70;1.02;;;20.90;91.30;;;;;;5050238;28;20151;-73
2022/06/26 03:50:10;;;;;;;1.35;0.63;;;20.80;92.20;;;;;;5045593;28;20029;-73
2022/06/26 03:52:37;;;;;;;1.63;1.00;;;20.70;92.50;;;;;;5038421;28;20124;-74
2022/06/26 03:55:05;;;;;;;1.90;1.10;;;20.70;93.00;;;;;;5063873;28;20029;-74
2022/06/26 03:57:32;;;;;;;2.90;1.42;;;20.70;92.70;;;;;;5043931;28;20462;-73
2022/06/26 04:00:00;;;;;;;0.95;0.77;;;20.60;93.00;;;;;;5044436;28;20475;-74
2022/06/26 04:02:27;;;;;;;3.10;1.25;;;20.50;93.40;;;;;;5072666;28;20042;-73
2022/06/26 04:04:54;;;;;;;3.58;1.23;;;20.50;93.40;;;;;;5059486;28;20140;-73
2022/06/26 04:07:21;;;;;;;2.63;1.30;;;20.50;93.10;;;;;;5045981;28;20088;-73
2022/06/26 04:09:49;;;;;;;1.15;0.70;;;20.50;92.90;;;;;;5046549;28;20037;-73
2022/06/26 04:12:17;;;;;;;2.58;0.73;;;20.40;91.90;;;;;;5051956;28;20031;-72
2022/06/26 04:14:46;;;;;;;1.63;0.60;;;20.40;92.20;;;;;;5054422;28;20115;-72
2022/06/26 04:17:17;;;;;;;2.85;1.20;;;20.30;91.30;;;;;;5040474;28;20517;-72
2022/06/26 04:19:44;;;;;;;1.60;0.52;;;20.30;91.50;;;;;;5048350;28;20033;-72
2022/06/26 04:22:11;;;;;;;4.47;1.23;;;20.20;91.80;;;;;;5043329;28;20072;-73
2022/06/26 04:24:39;;;;;;;2.47;0.77;;;20.10;92.00;;;;;;5048791;28;20206;-75
2022/06/26 04:27:07;;;;;;;3.47;0.85;;;20.10;92.10;;;;;;5031427;28;20078;-73
2022/06/26 04:29:34;;;;;;;1.13;0.50;;;20.00;91.30;;;;;;5060823;28;20433;-73
2022/06/26 04:32:02;;;;;;;1.35;0.50;;;19.90;91.10;;;;;;5038358;28;20521;-74
2022/06/26 04:34:29;;;;;;;0.70;0.52;;;19.90;90.90;;;;;;5055881;28;20166;-73
2022/06/26 04:36:56;;;;;;;0.50;0.20;;;19.80;90.70;;;;;;5048931;28;20086;-74
2022/06/26 04:39:24;;;;;;;0.82;0.40;;;19.80;90.20;;;;;;5061293;28;20032;-73
2022/06/26 04:41:51;;;;;;;1.38;0.40;;;19.80;90.70;;;;;;5039707;28;20079;-74
2022/06/26 04:44:18;;;;;;;1.13;0.63;;;19.70;90.60;;;;;;5046048;28;20039;-73
2022/06/26 04:46:46;;;;;;;0.68;0.30;;;19.70;90.90;;;;;;5037147;28;20397;-74
2022/06/26 04:49:14;;;;;;;0.90;0.30;;;19.60;91.10;;;;;;5047369;28;20035;-74
2022/06/26 04:51:42;;;;;;;1.08;0.40;;;19.60;90.90;;;;;;5029766;28;20094;-74
2022/06/26 04:54:10;;;;;;;0.40;0.20;;;19.60;91.10;;;;;;5048258;28;20053;-74
2022/06/26 04:56:38;;;;;;;0.40;0.25;;;19.50;90.90;;;;;;5046954;28;20029;-76
2022/06/26 04:59:06;;;;;;;1.17;0.40;;;19.50;91.10;;;;;;5049692;28;20450;-75
2022/06/26 05:01:35;;;;;;;1.45;0.75;;;19.50;91.20;;;;;;5043927;28;20070;-73
2022/06/26 05:04:03;;;;;;;1.33;0.57;;;19.50;91.50;;;;;;5045075;28;20025;-75
2022/06/26 05:06:30;;;;;;;0.60;0.40;;;19.40;91.50;;;;;;5046389;28;20191;-73
2022/06/26 05:08:57;;;;;;;0.75;0.40;;;19.30;91.40;;;;;;5051654;28;20075;-74
2022/06/26 05:11:25;;;;;;;2.22;0.73;;;19.30;91.90;;;;;;5045152;28;20030;-75
2022/06/26 05:13:52;;;;;;;1.95;0.98;;;19.20;92.90;;;;;;5041621;28;20462;-74
2022/06/26 05:16:19;;;;;;;1.98;0.95;;;19.10;93.60;;;;;;5046574;28;20021;-74
2022/06/26 05:18:47;;;;;;;0.90;0.40;;;19.00;93.70;;;;;;5039974;28;20383;-73
2022/06/26 05:21:14;;;;;;;1.58;1.10;;;18.90;93.80;;;;;;5030996;28;20029;-74
2022/06/26 05:23:41;;;;;;;2.85;2.50;;;18.80;94.00;;;;;;5031670;28;20029;-74
2022/06/26 05:26:09;;;;;;;3.90;1.50;;;18.80;94.30;;;;;;5033041;28;20036;-74
2022/06/26 05:28:36;;;;;;;6.57;1.83;;;18.70;94.70;;;;;;5044315;28;20033;-75
2022/06/26 05:31:05;;;;;;;1.83;1.20;;;18.60;95.10;;;;;;5043180;28;20021;-75
2022/06/26 05:33:32;;;;;;;1.80;1.15;;;18.50;95.20;;;;;;5035022;28;20032;-73
2022/06/26 05:35:59;;;;;;;2.00;1.00;;;18.40;95.30;;;;;;5044619;28;20047;-73
2022/06/26 05:38:27;;;;;;;3.97;1.20;;;18.30;95.50;;;;;;5042989;28;20034;-74
2022/06/26 05:40:54;;;;;;;3.10;2.25;;;18.30;95.70;;;;;;5040105;28;20108;-74
2022/06/26 05:43:21;;;;;;;3.45;1.30;;;18.20;95.80;;;;;;5039163;28;20496;-74
2022/06/26 05:45:49;;;;;;;2.58;1.35;;;18.20;95.90;;;;;;5034676;28;20043;-74
2022/06/26 05:48:16;;;;;;;2.22;1.45;;;18.10;96.10;;;;;;5045509;28;20478;-75
2022/06/26 05:50:44;;;;;;;2.97;1.35;;;18.10;96.40;;;;;;5038775;28;20807;-74
2022/06/26 05:53:11;;;;;;;3.10;2.45;;;17.90;96.50;;;;;;5046174;28;20076;-74
2022/06/26 05:55:38;;;;;;;3.08;1.65;;;17.80;97.00;;;;;;5045499;28;20025;-72
2022/06/26 05:58:06;;;;;;;3.97;1.52;;;17.80;97.10;;;;;;5028026;28;20111;-73
2022/06/26 06:00:35;;;;;;;2.88;1.88;;;17.70;97.20;;;;;;5047162;28;20107;-78
2022/06/26 06:03:03;;;;;;;5.07;2.30;;;17.60;97.20;;;;;;5039977;28;20116;-74
2022/06/26 06:05:30;;;;;;;2.67;1.80;;;17.50;97.30;;;;;;5045078;28;20017;-75
2022/06/26 06:07:58;;;;;;;4.22;1.67;;;17.40;97.50;;;;;;5045668;28;20021;-73
2022/06/26 06:10:27;;;;;;;2.53;1.83;;;17.30;97.50;;;;;;5055910;28;20060;-74
2022/06/26 06:12:55;;;;;;;3.50;1.60;;;17.20;97.40;;;;;;5056436;28;20136;-75
2022/06/26 06:15:24;;;;;;;2.47;1.55;;;17.10;97.30;;;;;;5069430;28;20039;-73
2022/06/26 06:17:51;;;;;;;3.80;2.80;;;17.00;97.50;;;;;;5042546;28;20107;-78
2022/06/26 06:20:21;;;;;;;11.90;6.55;;;17.00;97.60;;;;;;5041896;28;20032;-75
2022/06/26 06:22:54;;;;;;;11.43;7.70;;;16.90;97.70;;;;;;5053686;28;20033;-75
2022/06/26 06:25:23;;;;;;;7.75;4.93;;;16.80;98.00;;;;;;5039250;28;20030;-74
2022/06/26 06:27:50;;;;;;;23.92;14.75;;;16.70;98.20;;;;;;5043747;28;20430;-76
2022/06/26 06:30:18;;;;;;;14.02;8.50;;;16.60;98.40;;;;;;5044532;28;20584;-75
2022/06/26 06:32:48;;;;;;;11.63;7.78;;;16.50;98.60;;;;;;5041844;28;20033;-74
2022/06/26 06:35:16;;;;;;;8.07;6.93;;;16.40;98.90;;;;;;5030352;28;20033;-74
2022/06/26 06:37:44;;;;;;;8.80;6.60;;;16.30;99.00;;;;;;5029390;28;20109;-73
2022/06/26 06:40:14;;;;;;;6.47;4.82;;;16.20;99.30;;;;;;5042203;28;20037;-74
2022/06/26 06:42:43;;;;;;;4.13;3.42;;;16.10;99.60;;;;;;5040010;28;20132;-73
2022/06/26 06:45:11;;;;;;;5.32;3.28;;;16.00;99.50;;;;;;5047816;28;20029;-74
2022/06/26 06:47:38;;;;;;;4.43;2.38;;;16.00;99.60;;;;;;5035353;28;20037;-74
2022/06/26 06:50:07;;;;;;;3.88;2.30;;;15.90;99.80;;;;;;5029462;28;20017;-76
2022/06/26 06:52:35;;;;;;;4.35;2.70;;;15.90;99.90;;;;;;5043891;28;20049;-74
2022/06/26 06:55:04;;;;;;;4.30;2.38;;;15.80;99.90;;;;;;5031822;28;20043;-74
2022/06/26 06:57:31;;;;;;;4.07;2.40;;;15.70;99.90;;;;;;5041035;28;20025;-75
2022/06/26 06:59:58;;;;;;;5.60;2.97;;;15.60;99.90;;;;;;5037529;28;20056;-75
2022/06/26 07:02:26;;;;;;;7.57;3.10;;;15.50;99.90;;;;;;5049397;28;20033;-74
2022/06/26 07:04:53;;;;;;;4.13;3.10;;;15.40;99.90;;;;;;5046067;28;20085;-76
2022/06/26 07:07:21;;;;;;;2.88;2.58;;;15.30;99.90;;;;;;5055148;28;20120;-76
2022/06/26 07:09:48;;;;;;;4.82;3.25;;;15.10;99.90;;;;;;5047849;28;20056;-74
2022/06/26 07:12:15;;;;;;;5.40;4.07;;;15.00;99.90;;;;;;5042576;28;20481;-73
2022/06/26 07:14:43;;;;;;;8.18;4.55;;;15.00;99.90;;;;;;5042814;28;20025;-76
2022/06/26 07:17:10;;;;;;;9.45;5.65;;;14.90;99.90;;;;;;5046335;28;20115;-74
2022/06/26 07:19:37;;;;;;;12.70;6.47;;;14.80;99.90;;;;;;5044785;28;20128;-73
2022/06/26 07:22:05;;;;;;;13.90;6.57;;;14.70;99.90;;;;;;5049308;28;20439;-74
2022/06/26 07:24:33;;;;;;;15.20;8.13;;;14.60;99.90;;;;;;5049685;28;20040;-73
2022/06/26 07:27:03;;;;;;;18.17;9.63;;;14.50;99.90;;;;;;5040643;28;20056;-75
2022/06/26 07:29:31;;;;;;;18.85;10.45;;;14.50;99.90;;;;;;5031309;28;20056;-75
2022/06/26 07:31:58;;;;;;;15.10;10.05;;;14.60;99.90;;;;;;5025672;28;20029;-75
2022/06/26 07:34:26;;;;;;;19.58;9.77;;;14.60;99.90;;;;;;5030208;28;20116;-74
2022/06/26 07:36:53;;;;;;;21.73;11.02;;;14.50;99.90;;;;;;5033065;28;20040;-74
2022/06/26 07:39:22;;;;;;;18.23;10.30;;;14.60;99.90;;;;;;5030271;28;20029;-75
2022/06/26 07:41:50;;;;;;;20.83;12.27;;;14.50;99.90;;;;;;5032249;28;20413;-76
2022/06/26 07:44:17;;;;;;;22.35;12.38;;;14.60;99.90;;;;;;5032083;28;20021;-77
2022/06/26 07:46:45;;;;;;;24.73;12.55;;;14.70;99.90;;;;;;5040544;28;20021;-74
2022/06/26 07:49:12;;;;;;;18.38;11.55;;;14.70;99.90;;;;;;5032548;28;20040;-75
2022/06/26 07:51:39;;;;;;;13.00;8.55;;;14.80;99.90;;;;;;5028140;28;20045;-75
2022/06/26 07:54:07;;;;;;;10.30;7.03;;;14.80;99.90;;;;;;5029450;28;20439;-75
2022/06/26 07:56:34;;;;;;;9.02;5.97;;;14.70;99.90;;;;;;5029155;28;20029;-76
2022/06/26 07:59:02;;;;;;;7.60;5.68;;;14.70;99.90;;;;;;5034527;28;20025;-74
2022/06/26 08:01:29;;;;;;;10.15;6.55;;;14.70;99.90;;;;;;5029381;28;20502;-74
2022/06/26 08:03:57;;;;;;;8.35;6.10;;;14.60;99.90;;;;;;5035112;28;20467;-77
2022/06/26 08:06:24;;;;;;;10.73;6.35;;;14.50;99.90;;;;;;5032876;28;20430;-78
2022/06/26 08:08:52;;;;;;;12.82;8.93;;;14.40;99.90;;;;;;5035835;28;20041;-76
2022/06/26 08:11:20;;;;;;;12.85;8.38;;;14.40;99.90;;;;;;5033951;28;20111;-74
2022/06/26 08:13:47;;;;;;;15.65;9.85;;;14.40;99.90;;;;;;5038474;28;20102;-75
2022/06/26 08:16:15;;;;;;;17.50;9.90;;;14.40;99.90;;;;;;5041387;28;20037;-76
2022/06/26 08:18:43;;;;;;;18.30;9.85;;;14.30;99.90;;;;;;5035386;28;20148;-76
2022/06/26 08:23:55;;;;;;;15.95;10.80;;;14.20;99.90;;;;;;5039230;28;20135;-74
2022/06/26 08:26:23;;;;;;;21.88;11.55;;;14.10;99.90;;;;;;5042361;28;20025;-74
2022/06/26 08:28:51;;;;;;;20.40;12.50;;;14.00;99.90;;;;;;5035966;28;20269;-73
2022/06/26 08:31:18;;;;;;;18.65;11.25;;;14.00;99.90;;;;;;5032322;28;20033;-75
2022/06/26 08:33:45;;;;;;;18.88;12.93;;;14.00;99.90;;;;;;5038968;28;20025;-73
2022/06/26 08:36:13;;;;;;;24.67;15.90;;;13.90;99.90;;;;;;5037504;28;20067;-76
2022/06/26 08:38:40;;;;;;;22.38;13.88;;;13.90;99.90;;;;;;5037047;28;20522;-74
2022/06/26 08:41:09;;;;;;;23.67;13.70;;;13.90;99.90;;;;;;5034726;28;20475;-72
2022/06/26 08:43:40;;;;;;;20.95;12.82;;;13.90;99.90;;;;;;5035302;28;20048;-74
2022/06/26 08:46:08;;;;;;;18.63;12.40;;;13.90;99.90;;;;;;5041484;28;20453;-76
2022/06/26 08:48:43;;;;;;;18.33;12.30;;;13.90;99.90;;;;;;5045218;28;20056;-75
2022/06/26 08:51:11;;;;;;;19.90;12.05;;;13.90;99.90;;;;;;5037964;28;20061;-73
2022/06/26 08:53:40;;;;;;;21.90;13.20;;;13.90;99.90;;;;;;5035594;28;20093;-74
2022/06/26 08:56:08;;;;;;;24.20;15.48;;;13.90;99.90;;;;;;5031421;28;20042;-73
2022/06/26 08:58:35;;;;;;;22.88;14.20;;;13.80;99.90;;;;;;5041152;28;20583;-74
2022/06/26 09:01:04;;;;;;;21.02;14.30;;;13.80;99.90;;;;;;5031430;28;20045;-73
2022/06/26 09:03:34;;;;;;;25.70;14.32;;;13.80;99.90;;;;;;5034921;28;20022;-74
2022/06/26 09:06:03;;;;;;;16.92;11.00;;;13.80;99.90;;;;;;5035975;28;20095;-73
2022/06/26 09:08:31;;;;;;;17.05;10.25;;;13.80;99.90;;;;;;5031195;28;20030;-74
2022/06/26 09:10:58;;;;;;;13.00;8.75;;;13.70;99.90;;;;;;5031835;28;20097;-74
2022/06/26 09:13:40;;;;;;;19.73;11.57;;;13.70;99.90;;;;;;5032601;28;20071;-73
2022/06/26 09:16:09;;;;;;;16.48;9.90;;;13.70;99.90;;;;;;5032383;28;20502;-76
2022/06/26 09:18:41;;;;;;;12.95;9.55;;;13.60;99.90;;;;;;5030790;28;20059;-78
2022/06/26 09:21:10;;;;;;;15.38;9.38;;;13.50;99.90;;;;;;5038088;28;20128;-78
2022/06/26 09:23:39;;;;;;;14.10;9.45;;;13.40;99.90;;;;;;5037118;28;20162;-75
2022/06/26 09:26:06;;;;;;;14.10;9.73;;;13.30;99.90;;;;;;5035294;28;20025;-77
2022/06/26 09:28:34;;;;;;;12.82;9.27;;;13.30;99.90;;;;;;5036063;28;20029;-77
2022/06/26 09:31:04;;;;;;;12.63;9.32;;;13.20;99.90;;;;;;5031514;28;20487;-76
2022/06/26 09:33:36;;;;;;;14.57;11.27;;;13.20;99.90;;;;;;5031666;28;20554;-76
2022/06/26 09:36:05;;;;;;;14.13;10.80;;;13.10;99.90;;;;;;5043503;28;20112;-74
2022/06/26 09:38:35;;;;;;;16.63;12.15;;;13.10;99.90;;;;;;5031918;28;20025;-75
2022/06/26 09:41:07;;;;;;;14.82;10.98;;;13.00;99.90;;;;;;5031161;28;20343;-76
2022/06/26 09:43:38;;;;;;;16.60;11.90;;;13.00;99.90;;;;;;5031848;28;20246;-75
2022/06/26 09:46:16;;;;;;;15.77;11.25;;;12.90;99.90;;;;;;5043476;28;20108;-74
2022/06/26 09:48:43;;;;;;;13.10;10.32;;;12.90;99.90;;;;;;5041609;28;20033;-75
2022/06/26 09:51:13;;;;;;;16.05;11.60;;;12.80;99.90;;;;;;5034666;28;20033;-74
2022/06/26 09:53:41;;;;;;;15.52;10.93;;;12.80;99.90;;;;;;5032664;28;20155;-74
2022/06/26 09:56:09;;;;;;;15.23;11.15;;;12.80;99.90;;;;;;5038130;28;20037;-73
2022/06/26 09:58:36;;;;;;;14.88;10.90;;;12.70;99.90;;;;;;5033066;28;20030;-74
2022/06/26 10:06:37;;;;;;;17.20;8.73;;;12.60;99.90;;;;;;5039184;28;20072;-75
2022/06/26 10:09:07;;;;;;;12.98;8.30;;;12.60;99.90;;;;;;5036102;28;20029;-77
2022/06/26 10:11:37;;;;;;;10.65;7.07;;;12.50;99.90;;;;;;5032358;28;20021;-74
2022/06/26 10:14:16;;;;;;;10.00;6.25;;;12.50;99.90;;;;;;5042567;28;20026;-73
2022/06/26 10:17:02;;;;;;;11.40;7.13;;;12.50;99.90;;;;;;5039558;28;20025;-73
2022/06/26 10:19:56;;;;;;;8.70;6.57;;;12.50;99.90;;;;;;5052459;28;20485;-73
2022/06/26 10:22:23;;;;;;;13.52;5.65;;;12.50;99.90;;;;;;5047117;28;20114;-74
2022/06/26 10:25:00;;;;;;;6.80;4.57;;;12.50;99.90;;;;;;5032668;28;20028;-75
2022/06/26 10:27:30;;;;;;;7.30;6.03;;;12.50;99.90;;;;;;5046343;28;20041;-73
2022/06/26 10:30:08;;;;;;;8.90;7.13;;;12.50;99.90;;;;;;5045971;28;20051;-73
2022/06/26 10:32:36;;;;;;;9.18;6.30;;;12.50;99.90;;;;;;5038426;28;20824;-73
2022/06/26 10:35:04;;;;;;;11.98;7.88;;;12.50;99.90;;;;;;5041863;28;20021;-74
2022/06/26 10:37:46;;;;;;;12.85;9.45;;;12.50;99.90;;;;;;5032329;28;20043;-73
2022/06/26 10:42:52;;;;;;;10.70;8.45;;;12.50;99.90;;;;;;5044779;28;20104;-74
2022/06/26 10:43:06;;;;;;;9.13;5.97;;;12.50;99.90;;;;;;5049573;28;20098;-76
2022/06/26 10:45:39;;;;;;;5.10;3.90;;;12.50;99.90;;;;;;5060307;28;20032;-74
2022/06/26 10:48:17;;;;;;;4.82;3.50;;;12.50;99.90;;;;;;5040415;28;20359;-75
2022/06/26 10:50:55;;;;;;;6.15;2.92;;;12.40;99.90;;;;;;5032154;28;20025;-74
2022/06/26 10:53:31;;;;;;;4.65;2.58;;;12.40;99.90;;;;;;5034782;28;20041;-73
2022/06/26 10:56:01;;;;;;;4.38;3.38;;;12.30;99.90;;;;;;5032085;28;20056;-76
2022/06/26 10:58:48;;;;;;;4.75;3.35;;;12.30;99.90;;;;;;5037981;28;20540;-74
2022/06/26 11:01:20;;;;;;;5.38;4.03;;;12.20;99.90;;;;;;5049854;28;20065;-73
2022/06/26 11:03:47;;;;;;;7.97;4.45;;;12.20;99.90;;;;;;5033471;28;20030;-75
2022/06/26 11:06:16;;;;;;;7.88;5.00;;;12.20;99.90;;;;;;5044252;28;20033;-83
2022/06/26 11:08:51;;;;;;;4.82;4.07;;;12.10;99.90;;;;;;5049984;28;20040;-76
2022/06/26 11:11:34;;;;;;;9.40;7.10;;;12.00;99.90;;;;;;5044155;28;20041;-77
2022/06/26 11:14:07;;;;;;;21.52;15.15;;;12.00;99.90;;;;;;5037538;28;20540;-74
2022/06/26 11:16:43;;;;;;;23.17;13.07;;;11.90;99.90;;;;;;5032319;28;20021;-74
2022/06/26 11:19:26;;;;;;;;;;;11.90;99.90;;;;;;5058614;28;20028;-75
2022/06/26 11:22:11;;;;;;;15.90;9.88;;;11.90;99.90;;;;;;5055200;28;19920;-73
2022/06/26 11:24:56;;;;;;;12.13;7.40;;;11.90;99.90;;;;;;5036873;28;20108;-76
2022/06/26 11:27:25;;;;;;;3.95;3.15;;;11.80;99.90;;;;;;5051252;28;20028;-73
2022/06/26 11:29:53;;;;;;;5.78;4.10;;;11.80;99.90;;;;;;5049426;28;20025;-75
2022/06/26 11:32:24;;;;;;;4.80;4.20;;;11.70;99.90;;;;;;5041324;28;20071;-74
2022/06/26 11:34:53;;;;;;;4.13;2.97;;;11.70;99.90;;;;;;5041803;28;20048;-74
2022/06/26 11:37:35;;;;;;;3.45;2.95;;;11.70;99.90;;;;;;5032821;28;20060;-75
2022/06/26 11:40:15;;;;;;;5.78;4.20;;;11.70;99.90;;;;;;5047290;28;20029;-73
2022/06/26 11:42:43;;;;;;;16.75;10.07;;;11.70;99.90;;;;;;5039507;28;20033;-75
2022/06/26 11:45:20;;;;;;;11.60;8.10;;;11.70;99.90;;;;;;5047193;28;20075;-76
2022/06/26 11:47:47;;;;;;;11.23;7.32;;;11.70;99.90;;;;;;5041304;28;20478;-74
2022/06/26 11:50:22;;;;;;;10.90;6.82;;;11.70;99.90;;;;;;5039767;28;20051;-75
2022/06/26 11:52:54;;;;;;;9.63;4.45;;;11.70;99.90;;;;;;5051713;28;20118;-74
2022/06/26 11:55:22;;;;;;;11.45;4.30;;;11.70;99.90;;;;;;5056118;28;20482;-75
2022/06/26 11:57:49;;;;;;;5.50;2.13;;;11.70;99.90;;;;;;5033286;28;20036;-75
2022/06/26 12:00:20;;;;;;;3.80;2.38;;;11.70;99.90;;;;;;5031771;28;20037;-74
2022/06/26 12:02:49;;;;;;;8.23;5.78;;;11.70;99.90;;;;;;5030121;28;20471;-75
2022/06/26 12:05:25;;;;;;;8.15;5.72;;;11.70;99.90;;;;;;5048387;28;20082;-76
2022/06/26 12:07:54;;;;;;;12.02;6.72;;;11.60;99.90;;;;;;5031807;28;20147;-76
2022/06/26 12:10:29;;;;;;;8.90;5.05;;;11.60;99.90;;;;;;5048651;28;20121;-77
2022/06/26 12:12:57;;;;;;;7.13;5.45;;;11.70;99.90;;;;;;5033316;28;20030;-75
2022/06/26 12:15:25;;;;;;;7.00;5.28;;;11.70;99.90;;;;;;5072755;28;20028;-74
2022/06/26 12:17:58;;;;;;;6.75;6.15;;;11.70;99.90;;;;;;5039166;28;20028;-73
2022/06/26 12:20:27;;;;;;;6.82;6.03;;;11.70;99.90;;;;;;5033501;28;20029;-74
2022/06/26 12:22:56;;;;;;;7.28;4.85;;;11.70;99.90;;;;;;5039325;28;20040;-73
2022/06/26 12:25:35;;;;;;;8.95;5.18;;;11.70;99.90;;;;;;5029673;28;20036;-75
2022/06/26 12:28:03;;;;;;;8.95;6.07;;;11.70;99.90;;;;;;5023437;28;20036;-77
2022/06/26 12:30:44;;;;;;;7.70;5.57;;;11.60;99.90;;;;;;5040416;28;20025;-75
2022/06/26 12:33:12;;;;;;;7.88;4.63;;;11.60;99.90;;;;;;5048741;28;20162;-75
2022/06/26 12:35:39;;;;;;;5.65;3.55;;;11.50;99.90;;;;;;5034020;28;20056;-78
2022/06/26 12:38:07;;;;;;;4.68;2.72;;;11.40;99.90;;;;;;5044879;28;20360;-78
2022/06/26 12:40:34;;;;;;;2.72;1.50;;;11.40;99.90;;;;;;5035002;28;20026;-75
2022/06/26 12:43:03;;;;;;;4.55;2.55;;;11.40;99.90;;;;;;5049327;28;20051;-76
2022/06/26 12:45:31;;;;;;;4.13;2.60;;;11.30;99.90;;;;;;5049912;28;20029;-74
2022/06/26 12:47:59;;;;;;;4.10;2.63;;;11.30;99.90;;;;;;5044619;28;20114;-77
2022/06/26 12:50:26;;;;;;;3.22;2.15;;;11.30;99.90;;;;;;5031889;28;20112;-76
2022/06/26 12:52:57;;;;;;;3.20;2.47;;;11.20;99.90;;;;;;5035835;28;20060;-72
2022/06/26 12:55:24;;;;;;;3.53;1.67;;;11.20;99.90;;;;;;5047015;28;20103;-74
2022/06/26 12:57:51;;;;;;;3.20;1.63;;;11.20;99.90;;;;;;5035228;28;20478;-74
2022/06/26 13:00:19;;;;;;;2.53;1.40;;;11.20;99.90;;;;;;5045578;28;20127;-74
2022/06/26 13:02:46;;;;;;;1.88;1.30;;;11.20;99.90;;;;;;5037856;28;20103;-75